Mia-s — V2EI7 — position and weather

sailwx.info

Track history (hours):
 
Tides and Currents Weather Stations Pressure Air Temp Water Temp Dewpoint Dewpoint Depression Visibility Wind Speed Wind Dir Waves Ship Positions

Mia-s

Last reported at 2017-Apr-01 14:00 UTC. Time now 2017-May-27 13:49 UTC.
Position S 28°50' E 032°10'.
Warning: this ship's position is 55 days out of date.

Length 190 m; draft 8 m.

Type: Cargo ship. MMSI: 305442000.

Date/timePositionNaut miles runAvg speedWind from/ knotsBaromVisibWave heightAir tempDewpointWater temp
2017-Apr-01 14:00S 28°50' E 032°10'510.7
2017-Apr-01 13:30S 28°48' E 032°04'1 2.2
2017-Apr-01 12:58S 28°49' E 032°03'0 0.0
2017-Apr-01 12:28S 28°49' E 032°03'0 0.0
2017-Apr-01 11:58S 28°49' E 032°03'0 0.0
2017-Apr-01 11:28S 28°49' E 032°03'0 0.0
2017-Apr-01 10:58S 28°49' E 032°03'0 0.0
2017-Apr-01 10:28S 28°49' E 032°03'0 0.0
2017-Apr-01 09:58S 28°49' E 032°03'0 0.0
2017-Apr-01 09:28S 28°49' E 032°03'0 0.0
2017-Apr-01 08:58S 28°49' E 032°03'0 0.0
2017-Apr-01 08:28S 28°49' E 032°03'0 0.0
2017-Apr-01 07:55S 28°49' E 032°03'0 0.0
2017-Apr-01 07:28S 28°49' E 032°03'0 0.0
2017-Apr-01 06:58S 28°49' E 032°03'0 0.0
2017-Apr-01 06:28S 28°49' E 032°03'0 0.0
2017-Apr-01 05:58S 28°49' E 032°03'0 0.0
2017-Apr-01 05:28S 28°49' E 032°03'0 0.0
2017-Apr-01 04:52S 28°49' E 032°03'0 0.0
2017-Apr-01 04:28S 28°49' E 032°03'0 0.0
2017-Apr-01 03:58S 28°49' E 032°03'0 0.0
2017-Apr-01 03:28S 28°49' E 032°03'0 0.0
2017-Apr-01 02:55S 28°49' E 032°03'0 0.0
2017-Apr-01 02:28S 28°49' E 032°03'0 0.0
2017-Apr-01 01:58S 28°49' E 032°03'0 0.0
2017-Apr-01 01:25S 28°49' E 032°03'0 0.0
2017-Apr-01 00:55S 28°49' E 032°03'0 0.0
2017-Apr-01 00:28S 28°49' E 032°03'0 0.0
2017-Mar-31 23:58S 28°49' E 032°03'0 0.0
2017-Mar-31 23:28S 28°49' E 032°03'0 0.0
2017-Mar-31 22:55S 28°49' E 032°03'0 0.0
2017-Mar-31 22:25S 28°49' E 032°03'0 0.0
2017-Mar-31 21:55S 28°49' E 032°03'0 0.0
2017-Mar-31 21:28S 28°49' E 032°03'0 0.1
2017-Mar-31 21:00S 28°49' E 032°03'1 3.0
2017-Mar-31 20:30S 28°48' E 032°05'4 8.6
2017-Mar-31 20:00S 28°51' E 032°08'2 4.3
2017-Mar-31 19:30S 28°53' E 032°09'1 1.9
2017-Mar-31 19:00S 28°54' E 032°10'0 0.2
2017-Mar-31 18:30S 28°54' E 032°10'0 0.7
2017-Mar-31 18:01S 28°54' E 032°10'0 0.2
2017-Mar-31 17:30S 28°54' E 032°10'0 0.2
2017-Mar-31 16:58S 28°54' E 032°10'0 0.2
2017-Mar-31 16:28S 28°54' E 032°10'0 0.0
2017-Mar-31 15:58S 28°54' E 032°10'0 0.0
2017-Mar-31 15:28S 28°54' E 032°10'0 0.0
2017-Mar-31 14:58S 28°54' E 032°10'0 0.0
2017-Mar-31 13:58S 28°54' E 032°10'0 0.0
2017-Mar-31 13:28S 28°54' E 032°10'0 0.0
2017-Mar-31 12:55S 28°54' E 032°10'0 0.1
2017-Mar-31 12:28S 28°54' E 032°10'0 0.0
2017-Mar-31 11:55S 28°54' E 032°10'0 0.0
2017-Mar-31 11:28S 28°54' E 032°10'0 0.1
2017-Mar-31 10:58S 28°54' E 032°10'0 0.1
2017-Mar-31 10:16S 28°54' E 032°10'0 0.5
2017-Mar-31 09:58S 28°54' E 032°10'1 2.0
2017-Mar-31 09:30S 28°54' E 032°09'511.0
2017-Mar-31 09:00S 28°49' E 032°06'3 5.4
2017-Mar-31 08:28S 28°48' E 032°03'0 0.0
2017-Mar-31 07:58S 28°48' E 032°03'0 0.0
2017-Mar-31 07:25S 28°48' E 032°03'0 0.0
2017-Mar-31 06:52S 28°48' E 032°03'0 0.0
2017-Mar-31 06:28S 28°48' E 032°03'0 0.0
2017-Mar-31 05:58S 28°48' E 032°03'0 0.0
2017-Mar-31 05:25S 28°48' E 032°03'0 0.0
2017-Mar-31 04:55S 28°48' E 032°03'0 0.0
2017-Mar-31 04:31S 28°48' E 032°03'0 0.0
2017-Mar-31 03:31S 28°48' E 032°03'0 0.0
2017-Mar-31 02:31S 28°48' E 032°03'0 0.0
2017-Mar-31 01:31S 28°48' E 032°03'0 0.0
2017-Mar-31 00:31S 28°48' E 032°03'0 0.0
2017-Mar-30 23:32S 28°48' E 032°03'0 0.0
2017-Mar-30 22:32S 28°48' E 032°03'0 0.0
2017-Mar-30 21:32S 28°48' E 032°03'0 0.0
2017-Mar-30 20:32S 28°48' E 032°03'0 0.0
2017-Mar-30 19:32S 28°48' E 032°03'0 0.0
2017-Mar-30 18:32S 28°48' E 032°03'0 0.0
2017-Mar-30 17:20S 28°48' E 032°03'0 0.0
2017-Mar-30 16:29S 28°48' E 032°03'0 0.0
2017-Mar-30 15:32S 28°48' E 032°03'0 0.0
2017-Mar-30 14:32S 28°48' E 032°03'0 0.0
2017-Mar-30 13:32S 28°48' E 032°03'0 0.0
2017-Mar-30 12:29S 28°48' E 032°03'0 0.0
2017-Mar-30 11:32S 28°48' E 032°03'0 0.0
2017-Mar-30 10:29S 28°48' E 032°03'0 0.0
2017-Mar-30 09:32S 28°48' E 032°03'0 0.0
2017-Mar-30 08:32S 28°48' E 032°03'0 0.0
2017-Mar-30 07:32S 28°48' E 032°03'0 0.0
2017-Mar-30 06:32S 28°48' E 032°03'0 0.0
2017-Mar-30 05:32S 28°48' E 032°03'0 0.0
2017-Mar-30 04:32S 28°48' E 032°03'0 0.0
2017-Mar-30 03:32S 28°48' E 032°03'0 0.0
2017-Mar-30 02:29S 28°48' E 032°03'0 0.0
2017-Mar-30 01:33S 28°48' E 032°03'0 0.0
2017-Mar-30 00:32S 28°48' E 032°03'0 0.0
2017-Mar-29 23:32S 28°48' E 032°03'0 0.0
2017-Mar-29 22:32S 28°48' E 032°03'0 0.0
2017-Mar-29 21:32S 28°48' E 032°03'0 0.0
2017-Mar-29 20:32S 28°48' E 032°03'0 0.0
2017-Mar-29 19:32S 28°48' E 032°03'0 0.0
2017-Mar-29 18:32S 28°48' E 032°03'0 0.0
2017-Mar-29 17:29S 28°48' E 032°03'0 0.0
2017-Mar-29 16:32S 28°48' E 032°03'0 0.0
2017-Mar-29 15:29S 28°48' E 032°03'0 0.0
2017-Mar-29 14:32S 28°48' E 032°03'0 0.0
2017-Mar-29 13:32S 28°48' E 032°03'0 0.0
2017-Mar-29 12:32S 28°48' E 032°03'0 0.0
2017-Mar-29 11:32S 28°48' E 032°03'0 0.0
2017-Mar-29 10:32S 28°48' E 032°03'0 0.0
2017-Mar-29 09:29S 28°48' E 032°03'0 0.0
2017-Mar-29 08:32S 28°48' E 032°03'0 0.0
2017-Mar-29 07:32S 28°48' E 032°03'0 0.0
2017-Mar-29 06:32S 28°48' E 032°03'0 0.0
2017-Mar-29 05:32S 28°48' E 032°03'0 0.0
2017-Mar-29 04:32S 28°48' E 032°03'0 0.0
2017-Mar-29 03:32S 28°48' E 032°03'0 0.0
2017-Mar-29 02:32S 28°48' E 032°03'0 0.0
2017-Mar-29 01:32S 28°48' E 032°03'0 0.0
2017-Mar-29 00:32S 28°48' E 032°03'0 0.0
2017-Mar-28 23:32S 28°48' E 032°03'0 0.0
2017-Mar-28 22:32S 28°48' E 032°03'0 0.0
2017-Mar-28 21:33S 28°48' E 032°03'0 0.0
2017-Mar-28 20:32S 28°48' E 032°03'0 0.0
2017-Mar-28 19:32S 28°48' E 032°03'0 0.0
2017-Mar-28 18:32S 28°48' E 032°03'0 0.0
2017-Mar-28 17:32S 28°48' E 032°03'0 0.0
2017-Mar-28 16:32S 28°48' E 032°03'0 0.0
2017-Mar-28 15:32S 28°48' E 032°03'0 0.0
2017-Mar-28 14:32S 28°48' E 032°03'0 0.0
2017-Mar-28 13:32S 28°48' E 032°03'0 0.0
2017-Mar-28 12:32S 28°48' E 032°03'0 0.0
2017-Mar-28 11:32S 28°48' E 032°03'0 0.0
2017-Mar-28 10:32S 28°48' E 032°03'0 0.0
2017-Mar-28 09:32S 28°48' E 032°03'0 0.0
2017-Mar-28 08:32S 28°48' E 032°03'0 0.0
2017-Mar-28 07:32S 28°48' E 032°03'0 0.0
2017-Mar-28 06:32S 28°48' E 032°03'0 0.0
2017-Mar-28 05:32S 28°48' E 032°03'0 0.0
2017-Mar-28 04:20S 28°48' E 032°03'0 0.0
2017-Mar-28 03:29S 28°48' E 032°03'0 0.0
2017-Mar-28 02:32S 28°48' E 032°03'0 0.0
2017-Mar-28 01:32S 28°48' E 032°03'0 0.0
2017-Mar-28 00:32S 28°48' E 032°03'0 0.0
2017-Mar-27 23:26S 28°48' E 032°03'0 0.0
2017-Mar-27 22:32S 28°48' E 032°03'0 0.0
2017-Mar-27 21:32S 28°48' E 032°03'0 0.0
2017-Mar-27 20:32S 28°48' E 032°03'0 0.0
2017-Mar-27 19:32S 28°48' E 032°03'0 0.0
2017-Mar-27 18:23S 28°48' E 032°03'0 0.0
2017-Mar-27 17:32S 28°48' E 032°03'0 0.0
2017-Mar-27 16:32S 28°48' E 032°03'0 0.0
2017-Mar-27 15:29S 28°48' E 032°03'0 0.0
2017-Mar-27 14:32S 28°48' E 032°03'0 0.0
2017-Mar-27 13:32S 28°48' E 032°03'0 0.0
2017-Mar-27 12:29S 28°48' E 032°03'0 0.0
2017-Mar-27 11:32S 28°48' E 032°03'0 0.0
2017-Mar-27 10:32S 28°48' E 032°03'0 0.0
2017-Mar-27 09:32S 28°48' E 032°03'0 0.0
2017-Mar-27 08:32S 28°48' E 032°03'0 0.0
2017-Mar-27 07:32S 28°48' E 032°03'0 0.0
2017-Mar-27 06:32S 28°48' E 032°03'0 0.0
2017-Mar-27 05:32S 28°48' E 032°03'0 0.0
2017-Mar-27 04:32S 28°48' E 032°03'0 0.0
2017-Mar-27 03:32S 28°48' E 032°03'0 0.0
2017-Mar-27 02:32S 28°48' E 032°03'0 0.0
2017-Mar-27 01:32S 28°48' E 032°03'0 0.0
2017-Mar-27 00:32S 28°48' E 032°03'0 0.0
2017-Mar-26 23:32S 28°48' E 032°03'0 0.0
2017-Mar-26 22:32S 28°48' E 032°03'0 0.0
2017-Mar-26 21:32S 28°48' E 032°03'0 0.0
2017-Mar-26 20:32S 28°48' E 032°03'0 0.0
2017-Mar-26 19:32S 28°48' E 032°03'0 0.0
2017-Mar-26 18:32S 28°48' E 032°03'0 0.0
2017-Mar-26 17:29S 28°48' E 032°03'0 0.0
2017-Mar-26 16:32S 28°48' E 032°03'0 0.0
2017-Mar-26 15:32S 28°48' E 032°03'0 0.0
2017-Mar-26 13:29S 28°48' E 032°03'0 0.0
2017-Mar-26 12:32S 28°48' E 032°03'0 0.0
2017-Mar-26 11:32S 28°48' E 032°03'0 0.0
2017-Mar-26 10:32S 28°48' E 032°03'0 0.0
2017-Mar-26 09:32S 28°48' E 032°03'0 0.0
2017-Mar-26 08:32S 28°48' E 032°03'0 0.0
2017-Mar-26 07:32S 28°48' E 032°03'0 0.0
2017-Mar-26 06:32S 28°48' E 032°03'0 0.0
2017-Mar-26 05:32S 28°48' E 032°03'0 0.0
2017-Mar-26 04:32S 28°48' E 032°03'0 0.0
2017-Mar-26 03:32S 28°48' E 032°03'0 0.0
2017-Mar-26 02:32S 28°48' E 032°03'0 0.0
2017-Mar-26 01:32S 28°48' E 032°03'0 0.0
2017-Mar-26 00:32S 28°48' E 032°03'0 0.0
2017-Mar-25 23:32S 28°48' E 032°03'0 0.0
2017-Mar-25 22:32S 28°48' E 032°03'0 0.0
2017-Mar-25 21:32S 28°48' E 032°03'0 0.0
2017-Mar-25 20:32S 28°48' E 032°03'0 0.0
2017-Mar-25 19:32S 28°48' E 032°03'0 0.0
2017-Mar-25 18:33S 28°48' E 032°03'7 6.9
2017-Mar-25 17:33S 28°52' E 032°09'5 4.8
2017-Mar-25 16:33S 28°56' E 032°08'0 0.1
2017-Mar-25 15:32S 28°56' E 032°08'0 0.0
2017-Mar-25 14:26S 28°56' E 032°08'0 0.0
2017-Mar-25 13:32S 28°56' E 032°08'0 0.0
2017-Mar-25 12:31S 28°56' E 032°08'0 0.0
2017-Mar-25 11:31S 28°56' E 032°08'0 0.0
2017-Mar-25 10:31S 28°56' E 032°08'0 0.0
2017-Mar-25 09:31S 28°56' E 032°08'0 0.0
2017-Mar-25 08:31S 28°56' E 032°08'0 0.0
2017-Mar-25 07:31S 28°56' E 032°08'0 0.0
2017-Mar-25 06:31S 28°56' E 032°08'0 0.0
2017-Mar-25 05:31S 28°56' E 032°08'0 0.1
2017-Mar-25 04:31S 28°56' E 032°08'0 0.0
2017-Mar-25 03:31S 28°56' E 032°08'0 0.0
2017-Mar-25 02:31S 28°56' E 032°08'0 0.0
2017-Mar-25 01:32S 28°56' E 032°08'0 0.0
2017-Mar-25 00:32S 28°56' E 032°08'0 0.0
2017-Mar-24 23:31S 28°56' E 032°08'0 0.0
2017-Mar-24 22:31S 28°56' E 032°08'0 0.0
2017-Mar-24 21:28S 28°56' E 032°08'0 0.0
2017-Mar-24 20:31S 28°56' E 032°08'0 0.0
2017-Mar-24 19:31S 28°56' E 032°08'0 0.0
2017-Mar-24 18:31S 28°56' E 032°08'0 0.4
2017-Mar-24 17:33S 28°56' E 032°08'2 2.0
2017-Mar-24 16:33S 28°58' E 032°09'0 0.1
2017-Mar-24 15:33S 28°58' E 032°10'0 0.1
2017-Mar-24 14:33S 28°58' E 032°10'0 0.0
2017-Mar-24 13:33S 28°58' E 032°09'0 0.1
2017-Mar-24 12:33S 28°58' E 032°10'0 0.1
2017-Mar-24 11:33S 28°58' E 032°10'0 0.0
2017-Mar-24 10:24S 28°58' E 032°09'0 0.0
2017-Mar-24 08:30S 28°58' E 032°09'0 0.1
2017-Mar-24 05:27S 28°58' E 032°09'0 0.0
2017-Mar-24 04:33S 28°58' E 032°09'0 0.0
2017-Mar-24 03:24S 28°58' E 032°09'0 0.0
2017-Mar-24 02:21S 28°58' E 032°09'0 0.0
2017-Mar-24 01:33S 28°58' E 032°09'0 0.0
2017-Mar-24 00:30S 28°58' E 032°09'0 0.0
2017-Mar-23 18:33S 28°58' E 032°09'0 0.0
2017-Mar-23 17:30S 28°58' E 032°09'0 0.0
2017-Mar-23 16:30S 28°58' E 032°09'0 0.0
2017-Mar-23 15:33S 28°58' E 032°09'0 0.0
2017-Mar-23 14:24S 28°58' E 032°09'0 0.0
2017-Mar-23 13:30S 28°58' E 032°09'0 0.0
2017-Mar-23 12:33S 28°58' E 032°09'0 0.0
2017-Mar-23 11:30S 28°58' E 032°09'0 0.0
2017-Mar-23 10:30S 28°58' E 032°09'0 0.0
2017-Mar-23 09:33S 28°58' E 032°09'0 0.0
2017-Mar-23 05:27S 28°58' E 032°09'0 0.1
2017-Mar-23 04:33S 28°58' E 032°09'0 0.0
2017-Mar-23 03:30S 28°58' E 032°09'0 0.0
2017-Mar-23 02:33S 28°58' E 032°09'0 0.0
2017-Mar-23 01:33S 28°58' E 032°09'0 0.0
2017-Mar-23 00:27S 28°58' E 032°09'0 0.3
2017-Mar-22 23:33S 28°59' E 032°09'1111.4
2017-Mar-22 22:34S 28°53' E 032°20'2114.2
2017-Mar-22 21:06S 28°44' E 032°42'713.3
2017-Mar-22 20:33S 28°42' E 032°50'1513.3
2017-Mar-22 19:26S 28°38' E 033°06'1213.2
2017-Mar-22 18:33S 28°36' E 033°19'1313.1
2017-Mar-22 17:32S 28°33' E 033°34'  
Track history (hours):
 
Tides and Currents Weather Stations Pressure Air Temp Water Temp Dewpoint Dewpoint Depression Visibility Wind Speed Wind Dir Waves Ship Positions

Mia-s

Last reported at 2017-Apr-01 14:00 UTC. Time now 2017-May-27 13:49 UTC.
Position S 28°50' E 032°10'.
Warning: this ship's position is 55 days out of date.

Length 190 m; draft 8 m.

Type: Cargo ship. MMSI: 305442000.

Date/timePositionNaut miles runAvg speedWind from/ knotsBaromVisibWave heightAir tempDewpointWater temp
2017-Apr-01 14:00S 28°50' E 032°10'510.7
2017-Apr-01 13:30S 28°48' E 032°04'1 2.2
2017-Apr-01 12:58S 28°49' E 032°03'0 0.0
2017-Apr-01 12:28S 28°49' E 032°03'0 0.0
2017-Apr-01 11:58S 28°49' E 032°03'0 0.0
2017-Apr-01 11:28S 28°49' E 032°03'0 0.0
2017-Apr-01 10:58S 28°49' E 032°03'0 0.0
2017-Apr-01 10:28S 28°49' E 032°03'0 0.0
2017-Apr-01 09:58S 28°49' E 032°03'0 0.0
2017-Apr-01 09:28S 28°49' E 032°03'0 0.0
2017-Apr-01 08:58S 28°49' E 032°03'0 0.0
2017-Apr-01 08:28S 28°49' E 032°03'0 0.0
2017-Apr-01 07:55S 28°49' E 032°03'0 0.0
2017-Apr-01 07:28S 28°49' E 032°03'0 0.0
2017-Apr-01 06:58S 28°49' E 032°03'0 0.0
2017-Apr-01 06:28S 28°49' E 032°03'0 0.0
2017-Apr-01 05:58S 28°49' E 032°03'0 0.0
2017-Apr-01 05:28S 28°49' E 032°03'0 0.0
2017-Apr-01 04:52S 28°49' E 032°03'0 0.0
2017-Apr-01 04:28S 28°49' E 032°03'0 0.0
2017-Apr-01 03:58S 28°49' E 032°03'0 0.0
2017-Apr-01 03:28S 28°49' E 032°03'0 0.0
2017-Apr-01 02:55S 28°49' E 032°03'0 0.0
2017-Apr-01 02:28S 28°49' E 032°03'0 0.0
2017-Apr-01 01:58S 28°49' E 032°03'0 0.0
2017-Apr-01 01:25S 28°49' E 032°03'0 0.0
2017-Apr-01 00:55S 28°49' E 032°03'0 0.0
2017-Apr-01 00:28S 28°49' E 032°03'0 0.0
2017-Mar-31 23:58S 28°49' E 032°03'0 0.0
2017-Mar-31 23:28S 28°49' E 032°03'0 0.0
2017-Mar-31 22:55S 28°49' E 032°03'0 0.0
2017-Mar-31 22:25S 28°49' E 032°03'0 0.0
2017-Mar-31 21:55S 28°49' E 032°03'0 0.0
2017-Mar-31 21:28S 28°49' E 032°03'0 0.1
2017-Mar-31 21:00S 28°49' E 032°03'1 3.0
2017-Mar-31 20:30S 28°48' E 032°05'4 8.6
2017-Mar-31 20:00S 28°51' E 032°08'2 4.3
2017-Mar-31 19:30S 28°53' E 032°09'1 1.9
2017-Mar-31 19:00S 28°54' E 032°10'0 0.2
2017-Mar-31 18:30S 28°54' E 032°10'0 0.7
2017-Mar-31 18:01S 28°54' E 032°10'0 0.2
2017-Mar-31 17:30S 28°54' E 032°10'0 0.2
2017-Mar-31 16:58S 28°54' E 032°10'0 0.2
2017-Mar-31 16:28S 28°54' E 032°10'0 0.0
2017-Mar-31 15:58S 28°54' E 032°10'0 0.0
2017-Mar-31 15:28S 28°54' E 032°10'0 0.0
2017-Mar-31 14:58S 28°54' E 032°10'0 0.0
2017-Mar-31 13:58S 28°54' E 032°10'0 0.0
2017-Mar-31 13:28S 28°54' E 032°10'0 0.0
2017-Mar-31 12:55S 28°54' E 032°10'0 0.1
2017-Mar-31 12:28S 28°54' E 032°10'0 0.0
2017-Mar-31 11:55S 28°54' E 032°10'0 0.0
2017-Mar-31 11:28S 28°54' E 032°10'0 0.1
2017-Mar-31 10:58S 28°54' E 032°10'0 0.1
2017-Mar-31 10:16S 28°54' E 032°10'0 0.5
2017-Mar-31 09:58S 28°54' E 032°10'1 2.0
2017-Mar-31 09:30S 28°54' E 032°09'511.0
2017-Mar-31 09:00S 28°49' E 032°06'3 5.4
2017-Mar-31 08:28S 28°48' E 032°03'0 0.0
2017-Mar-31 07:58S 28°48' E 032°03'0 0.0
2017-Mar-31 07:25S 28°48' E 032°03'0 0.0
2017-Mar-31 06:52S 28°48' E 032°03'0 0.0
2017-Mar-31 06:28S 28°48' E 032°03'0 0.0
2017-Mar-31 05:58S 28°48' E 032°03'0 0.0
2017-Mar-31 05:25S 28°48' E 032°03'0 0.0
2017-Mar-31 04:55S 28°48' E 032°03'0 0.0
2017-Mar-31 04:31S 28°48' E 032°03'0 0.0
2017-Mar-31 03:31S 28°48' E 032°03'0 0.0
2017-Mar-31 02:31S 28°48' E 032°03'0 0.0
2017-Mar-31 01:31S 28°48' E 032°03'0 0.0
2017-Mar-31 00:31S 28°48' E 032°03'0 0.0
2017-Mar-30 23:32S 28°48' E 032°03'0 0.0
2017-Mar-30 22:32S 28°48' E 032°03'0 0.0
2017-Mar-30 21:32S 28°48' E 032°03'0 0.0
2017-Mar-30 20:32S 28°48' E 032°03'0 0.0
2017-Mar-30 19:32S 28°48' E 032°03'0 0.0
2017-Mar-30 18:32S 28°48' E 032°03'0 0.0
2017-Mar-30 17:20S 28°48' E 032°03'0 0.0
2017-Mar-30 16:29S 28°48' E 032°03'0 0.0
2017-Mar-30 15:32S 28°48' E 032°03'0 0.0
2017-Mar-30 14:32S 28°48' E 032°03'0 0.0
2017-Mar-30 13:32S 28°48' E 032°03'0 0.0
2017-Mar-30 12:29S 28°48' E 032°03'0 0.0
2017-Mar-30 11:32S 28°48' E 032°03'0 0.0
2017-Mar-30 10:29S 28°48' E 032°03'0 0.0
2017-Mar-30 09:32S 28°48' E 032°03'0 0.0
2017-Mar-30 08:32S 28°48' E 032°03'0 0.0
2017-Mar-30 07:32S 28°48' E 032°03'0 0.0
2017-Mar-30 06:32S 28°48' E 032°03'0 0.0
2017-Mar-30 05:32S 28°48' E 032°03'0 0.0
2017-Mar-30 04:32S 28°48' E 032°03'0 0.0
2017-Mar-30 03:32S 28°48' E 032°03'0 0.0
2017-Mar-30 02:29S 28°48' E 032°03'0 0.0
2017-Mar-30 01:33S 28°48' E 032°03'0 0.0
2017-Mar-30 00:32S 28°48' E 032°03'0 0.0
2017-Mar-29 23:32S 28°48' E 032°03'0 0.0
2017-Mar-29 22:32S 28°48' E 032°03'0 0.0
2017-Mar-29 21:32S 28°48' E 032°03'0 0.0
2017-Mar-29 20:32S 28°48' E 032°03'0 0.0
2017-Mar-29 19:32S 28°48' E 032°03'0 0.0
2017-Mar-29 18:32S 28°48' E 032°03'0 0.0
2017-Mar-29 17:29S 28°48' E 032°03'0 0.0
2017-Mar-29 16:32S 28°48' E 032°03'0 0.0
2017-Mar-29 15:29S 28°48' E 032°03'0 0.0
2017-Mar-29 14:32S 28°48' E 032°03'0 0.0
2017-Mar-29 13:32S 28°48' E 032°03'0 0.0
2017-Mar-29 12:32S 28°48' E 032°03'0 0.0
2017-Mar-29 11:32S 28°48' E 032°03'0 0.0
2017-Mar-29 10:32S 28°48' E 032°03'0 0.0
2017-Mar-29 09:29S 28°48' E 032°03'0 0.0
2017-Mar-29 08:32S 28°48' E 032°03'0 0.0
2017-Mar-29 07:32S 28°48' E 032°03'0 0.0
2017-Mar-29 06:32S 28°48' E 032°03'0 0.0
2017-Mar-29 05:32S 28°48' E 032°03'0 0.0
2017-Mar-29 04:32S 28°48' E 032°03'0 0.0
2017-Mar-29 03:32S 28°48' E 032°03'0 0.0
2017-Mar-29 02:32S 28°48' E 032°03'0 0.0
2017-Mar-29 01:32S 28°48' E 032°03'0 0.0
2017-Mar-29 00:32S 28°48' E 032°03'0 0.0
2017-Mar-28 23:32S 28°48' E 032°03'0 0.0
2017-Mar-28 22:32S 28°48' E 032°03'0 0.0
2017-Mar-28 21:33S 28°48' E 032°03'0 0.0
2017-Mar-28 20:32S 28°48' E 032°03'0 0.0
2017-Mar-28 19:32S 28°48' E 032°03'0 0.0
2017-Mar-28 18:32S 28°48' E 032°03'0 0.0
2017-Mar-28 17:32S 28°48' E 032°03'0 0.0
2017-Mar-28 16:32S 28°48' E 032°03'0 0.0
2017-Mar-28 15:32S 28°48' E 032°03'0 0.0
2017-Mar-28 14:32S 28°48' E 032°03'0 0.0
2017-Mar-28 13:32S 28°48' E 032°03'0 0.0
2017-Mar-28 12:32S 28°48' E 032°03'0 0.0
2017-Mar-28 11:32S 28°48' E 032°03'0 0.0
2017-Mar-28 10:32S 28°48' E 032°03'0 0.0
2017-Mar-28 09:32S 28°48' E 032°03'0 0.0
2017-Mar-28 08:32S 28°48' E 032°03'0 0.0
2017-Mar-28 07:32S 28°48' E 032°03'0 0.0
2017-Mar-28 06:32S 28°48' E 032°03'0 0.0
2017-Mar-28 05:32S 28°48' E 032°03'0 0.0
2017-Mar-28 04:20S 28°48' E 032°03'0 0.0
2017-Mar-28 03:29S 28°48' E 032°03'0 0.0
2017-Mar-28 02:32S 28°48' E 032°03'0 0.0
2017-Mar-28 01:32S 28°48' E 032°03'0 0.0
2017-Mar-28 00:32S 28°48' E 032°03'0 0.0
2017-Mar-27 23:26S 28°48' E 032°03'0 0.0
2017-Mar-27 22:32S 28°48' E 032°03'0 0.0
2017-Mar-27 21:32S 28°48' E 032°03'0 0.0
2017-Mar-27 20:32S 28°48' E 032°03'0 0.0
2017-Mar-27 19:32S 28°48' E 032°03'0 0.0
2017-Mar-27 18:23S 28°48' E 032°03'0 0.0
2017-Mar-27 17:32S 28°48' E 032°03'0 0.0
2017-Mar-27 16:32S 28°48' E 032°03'0 0.0
2017-Mar-27 15:29S 28°48' E 032°03'0 0.0
2017-Mar-27 14:32S 28°48' E 032°03'0 0.0
2017-Mar-27 13:32S 28°48' E 032°03'0 0.0
2017-Mar-27 12:29S 28°48' E 032°03'0 0.0
2017-Mar-27 11:32S 28°48' E 032°03'0 0.0
2017-Mar-27 10:32S 28°48' E 032°03'0 0.0
2017-Mar-27 09:32S 28°48' E 032°03'0 0.0
2017-Mar-27 08:32S 28°48' E 032°03'0 0.0
2017-Mar-27 07:32S 28°48' E 032°03'0 0.0
2017-Mar-27 06:32S 28°48' E 032°03'0 0.0
2017-Mar-27 05:32S 28°48' E 032°03'0 0.0
2017-Mar-27 04:32S 28°48' E 032°03'0 0.0
2017-Mar-27 03:32S 28°48' E 032°03'0 0.0
2017-Mar-27 02:32S 28°48' E 032°03'0 0.0
2017-Mar-27 01:32S 28°48' E 032°03'0 0.0
2017-Mar-27 00:32S 28°48' E 032°03'0 0.0
2017-Mar-26 23:32S 28°48' E 032°03'0 0.0
2017-Mar-26 22:32S 28°48' E 032°03'0 0.0
2017-Mar-26 21:32S 28°48' E 032°03'0 0.0
2017-Mar-26 20:32S 28°48' E 032°03'0 0.0
2017-Mar-26 19:32S 28°48' E 032°03'0 0.0
2017-Mar-26 18:32S 28°48' E 032°03'0 0.0
2017-Mar-26 17:29S 28°48' E 032°03'0 0.0
2017-Mar-26 16:32S 28°48' E 032°03'0 0.0
2017-Mar-26 15:32S 28°48' E 032°03'0 0.0
2017-Mar-26 13:29S 28°48' E 032°03'0 0.0
2017-Mar-26 12:32S 28°48' E 032°03'0 0.0
2017-Mar-26 11:32S 28°48' E 032°03'0 0.0
2017-Mar-26 10:32S 28°48' E 032°03'0 0.0
2017-Mar-26 09:32S 28°48' E 032°03'0 0.0
2017-Mar-26 08:32S 28°48' E 032°03'0 0.0
2017-Mar-26 07:32S 28°48' E 032°03'0 0.0
2017-Mar-26 06:32S 28°48' E 032°03'0 0.0
2017-Mar-26 05:32S 28°48' E 032°03'0 0.0
2017-Mar-26 04:32S 28°48' E 032°03'0 0.0
2017-Mar-26 03:32S 28°48' E 032°03'0 0.0
2017-Mar-26 02:32S 28°48' E 032°03'0 0.0
2017-Mar-26 01:32S 28°48' E 032°03'0 0.0
2017-Mar-26 00:32S 28°48' E 032°03'0 0.0
2017-Mar-25 23:32S 28°48' E 032°03'0 0.0
2017-Mar-25 22:32S 28°48' E 032°03'0 0.0
2017-Mar-25 21:32S 28°48' E 032°03'0 0.0
2017-Mar-25 20:32S 28°48' E 032°03'0 0.0
2017-Mar-25 19:32S 28°48' E 032°03'0 0.0
2017-Mar-25 18:33S 28°48' E 032°03'7 6.9
2017-Mar-25 17:33S 28°52' E 032°09'5 4.8
2017-Mar-25 16:33S 28°56' E 032°08'0 0.1
2017-Mar-25 15:32S 28°56' E 032°08'0 0.0
2017-Mar-25 14:26S 28°56' E 032°08'0 0.0
2017-Mar-25 13:32S 28°56' E 032°08'0 0.0
2017-Mar-25 12:31S 28°56' E 032°08'0 0.0
2017-Mar-25 11:31S 28°56' E 032°08'0 0.0
2017-Mar-25 10:31S 28°56' E 032°08'0 0.0
2017-Mar-25 09:31S 28°56' E 032°08'0 0.0
2017-Mar-25 08:31S 28°56' E 032°08'0 0.0
2017-Mar-25 07:31S 28°56' E 032°08'0 0.0
2017-Mar-25 06:31S 28°56' E 032°08'0 0.0
2017-Mar-25 05:31S 28°56' E 032°08'0 0.1
2017-Mar-25 04:31S 28°56' E 032°08'0 0.0
2017-Mar-25 03:31S 28°56' E 032°08'0 0.0
2017-Mar-25 02:31S 28°56' E 032°08'0 0.0
2017-Mar-25 01:32S 28°56' E 032°08'0 0.0
2017-Mar-25 00:32S 28°56' E 032°08'0 0.0
2017-Mar-24 23:31S 28°56' E 032°08'0 0.0
2017-Mar-24 22:31S 28°56' E 032°08'0 0.0
2017-Mar-24 21:28S 28°56' E 032°08'0 0.0
2017-Mar-24 20:31S 28°56' E 032°08'0 0.0
2017-Mar-24 19:31S 28°56' E 032°08'0 0.0
2017-Mar-24 18:31S 28°56' E 032°08'0 0.4
2017-Mar-24 17:33S 28°56' E 032°08'2 2.0
2017-Mar-24 16:33S 28°58' E 032°09'0 0.1
2017-Mar-24 15:33S 28°58' E 032°10'0 0.1
2017-Mar-24 14:33S 28°58' E 032°10'0 0.0
2017-Mar-24 13:33S 28°58' E 032°09'0 0.1
2017-Mar-24 12:33S 28°58' E 032°10'0 0.1
2017-Mar-24 11:33S 28°58' E 032°10'0 0.0
2017-Mar-24 10:24S 28°58' E 032°09'0 0.0
2017-Mar-24 08:30S 28°58' E 032°09'0 0.1
2017-Mar-24 05:27S 28°58' E 032°09'0 0.0
2017-Mar-24 04:33S 28°58' E 032°09'0 0.0
2017-Mar-24 03:24S 28°58' E 032°09'0 0.0
2017-Mar-24 02:21S 28°58' E 032°09'0 0.0
2017-Mar-24 01:33S 28°58' E 032°09'0 0.0
2017-Mar-24 00:30S 28°58' E 032°09'0 0.0
2017-Mar-23 18:33S 28°58' E 032°09'0 0.0
2017-Mar-23 17:30S 28°58' E 032°09'0 0.0
2017-Mar-23 16:30S 28°58' E 032°09'0 0.0
2017-Mar-23 15:33S 28°58' E 032°09'0 0.0
2017-Mar-23 14:24S 28°58' E 032°09'0 0.0
2017-Mar-23 13:30S 28°58' E 032°09'0 0.0
2017-Mar-23 12:33S 28°58' E 032°09'0 0.0
2017-Mar-23 11:30S 28°58' E 032°09'0 0.0
2017-Mar-23 10:30S 28°58' E 032°09'0 0.0
2017-Mar-23 09:33S 28°58' E 032°09'0 0.0
2017-Mar-23 05:27S 28°58' E 032°09'0 0.1
2017-Mar-23 04:33S 28°58' E 032°09'0 0.0
2017-Mar-23 03:30S 28°58' E 032°09'0 0.0
2017-Mar-23 02:33S 28°58' E 032°09'0 0.0
2017-Mar-23 01:33S 28°58' E 032°09'0 0.0
2017-Mar-23 00:27S 28°58' E 032°09'0 0.3
2017-Mar-22 23:33S 28°59' E 032°09'1111.4
2017-Mar-22 22:34S 28°53' E 032°20'2114.2
2017-Mar-22 21:06S 28°44' E 032°42'713.3
2017-Mar-22 20:33S 28°42' E 032°50'1513.3
2017-Mar-22 19:26S 28°38' E 033°06'1213.2
2017-Mar-22 18:33S 28°36' E 033°19'1313.1
2017-Mar-22 17:32S 28°33' E 033°34'  

Dump ship's entire track history